Aérodrome :
LOGIN :

S'inscrire | Disclaimer

   EN    FR    IT 

 










Légende :    VFR   VFR Marginal   IFR   IFR Intensif   IFR Très Intensif
Visi : 
Plafond : 
>= 8 km
>= 3000ft
5 à 8 km
1000 à 3000 ft
1500m à 5 km
500 à 1000 ft
800 à 1500m
200 à 500 ft
< 800m
< 200 ft
Symboles :   Orages  Brouillard  Fortes neiges  Fortes précipitations  Vent > 20 kt
SIGMETs :   Divers  Orages  Givrage  Turbulence  Onde Orograph.  Cendres Volcan.






- Altitude de l'aérodrome : 112 ft
- Code IATA : KIR


EIKY - Kerry Farranfore

DERNIER METAR :
  • 131200Z 31009KT 270V340 9999 -RA BKN023 06/04 Q0991

METARs EXPIRÉS :
  • 131130Z 25011KT 9999 FEW034 SCT046 06/04 Q0991
  • 131100Z 23008KT 9999 FEW017 SCT031 05/04 Q0992
  • 131030Z 22006KT 190V260 9999 -RA FEW014 SCT029 OVC034 04/03 Q0993 RESHRA
  • 131000Z 22005KT 9999 RA FEW010 BKN028 04/03 Q0994 RERA
  • 130900Z 27015G25KT 9000 +RA SCT014 BKN025 OVC035 04/03 Q0995

TAF TAF EIKY
Valide du 13 à 12h jusqu'au 13 à 21h UTC


131100Z 1312/1321 24008KT 9999 BKN020
BECMG 1312/1314 28015G26KT
TEMPO 1312/1321 5000 SHRA BKN012 SCT018CB
BECMG 1314/1316 30013G25KT
BECMG 1317/1319 27012KT
BECMG 1319/1321 25006KT



MET'MAP, la Météo Aéronautique d'un coup d'oeil ! - Copyright ORBIFLY Décembre 2007 - Disclaimer

ORBIFLY MET'MAP TEAM :

Programmation & Développement : Alexandra Zaïnal
Conception & Développement : Baudouin d'Aumeries
Co-Programmation & Développement : Marc-Olivier Méhu
Soutien technique & logistique : Manuel Goepfert

Contact : metmap@orbifly.com




SOURCES & CREDITS :

   NOAA